Time;durP1;ratioP1;P1;durP2;ratioP2;P2;SDS_P1;SDS_P2;PMS_P1;PMS_P2;Temp;Humidity;BMP_temperature;BMP_pressure;BME280_temperature;BME280_humidity;BME280_pressure;Samples;Min_cycle;Max_cycle;Signal;HPM_P1;HPM_P2
2022/09/26 04:06:34;;;;;;;0.60;0.60;;;;;;;15.45;78.12;100892.22;5064692;28;20749;-83
2022/09/26 04:09:00;;;;;;;1.45;1.35;;;;;;;15.58;78.35;100885.25;5049401;28;20044;-82
2022/09/26 04:11:25;;;;;;;1.13;1.02;;;;;;;15.78;77.98;100886.59;5049067;28;20090;-83
2022/09/26 04:13:51;;;;;;;1.05;0.95;;;;;;;15.93;77.06;100887.34;5065748;28;20513;-82
2022/09/26 04:16:18;;;;;;;1.15;1.05;;;;;;;16.08;75.88;100881.09;5031247;28;20056;-83
2022/09/26 04:18:44;;;;;;;0.43;0.30;;;;;;;16.17;75.94;100888.28;5029945;28;20032;-83
2022/09/26 04:21:11;;;;;;;0.55;0.55;;;;;;;16.24;75.44;100875.66;5046514;28;20406;-84
2022/09/26 04:23:38;;;;;;;0.52;0.52;;;;;;;16.23;75.11;100863.56;5046343;28;20072;-88
2022/09/26 04:26:07;;;;;;;0.88;0.63;;;;;;;16.34;74.46;100874.94;5038263;28;20040;-91
2022/09/26 04:28:34;;;;;;;1.67;1.13;;;;;;;16.44;74.23;100884.75;5048156;28;20055;-85
2022/09/26 04:31:00;;;;;;;1.75;1.65;;;;;;;16.60;73.30;100878.31;5037056;28;20048;-95
2022/09/26 04:33:25;;;;;;;0.93;0.77;;;;;;;16.53;73.05;100871.88;5035813;28;20048;-87
2022/09/26 04:35:51;;;;;;;1.30;0.60;;;;;;;16.66;72.35;100876.22;5049435;28;20506;-85
2022/09/26 04:38:17;;;;;;;0.90;0.90;;;;;;;16.80;71.72;100900.47;5049659;28;20044;-85
2022/09/26 04:40:43;;;;;;;0.70;0.70;;;;;;;16.75;72.00;100891.28;5032294;28;20048;-84
2022/09/26 04:43:09;;;;;;;1.45;1.05;;;;;;;16.81;72.40;100902.16;5049223;28;20107;-84
2022/09/26 04:45:34;;;;;;;0.60;0.60;;;;;;;16.81;72.75;100902.16;5032432;28;20055;-84
2022/09/26 04:48:00;;;;;;;1.35;1.25;;;;;;;16.84;72.56;100901.94;5050398;28;20040;-89
2022/09/26 04:50:26;;;;;;;0.80;0.80;;;;;;;17.00;72.06;100901.66;5065453;28;20048;-89
2022/09/26 04:52:51;;;;;;;1.15;0.75;;;;;;;16.95;71.74;100897.72;5050026;28;20033;-90
2022/09/26 04:55:17;;;;;;;0.65;0.65;;;;;;;16.99;70.85;100900.00;5036263;28;20075;-93
2022/09/26 04:57:42;;;;;;;0.52;0.52;;;;;;;16.95;70.32;100902.94;5052747;28;20028;-95
2022/09/26 05:00:10;;;;;;;0.35;0.32;;;;;;;16.99;69.98;100896.53;5068473;28;20033;-90
2022/09/26 05:02:35;;;;;;;0.45;0.45;;;;;;;16.96;69.74;100907.22;5034594;28;20056;-90
2022/09/26 05:05:01;;;;;;;0.90;0.88;;;;;;;16.97;70.19;100908.91;5033039;28;20045;-90
2022/09/26 05:07:30;;;;;;;0.90;0.90;;;;;;;16.91;69.70;100911.00;5049083;28;20436;-91
2022/09/26 05:09:55;;;;;;;0.50;0.50;;;;;;;17.00;69.70;100903.44;5072970;28;20059;-92
2022/09/26 05:12:21;;;;;;;0.85;0.75;;;;;;;16.86;68.93;100900.03;5054583;28;20029;-93
2022/09/26 05:14:46;;;;;;;0.77;0.77;;;;;;;16.89;69.05;100904.19;5032015;28;20056;-80
2022/09/26 05:17:12;;;;;;;0.38;0.38;;;;;;;16.67;69.27;100894.41;5039128;28;20033;-90
2022/09/26 05:19:37;;;;;;;1.85;1.45;;;;;;;16.66;69.48;100897.97;5050865;28;20029;-95
2022/09/26 05:22:03;;;;;;;0.77;0.77;;;;;;;16.62;68.68;100892.13;5019337;28;20044;-90
2022/09/26 05:27:14;;;;;;;0.60;0.60;;;;;;;16.68;67.35;100905.69;5031601;28;20044;-96
2022/09/26 05:29:39;;;;;;;2.90;1.95;;;;;;;16.71;67.75;100916.78;5035060;28;20453;-88
2022/09/26 05:32:05;;;;;;;2.42;2.22;;;;;;;16.82;67.91;100914.28;5052632;28;20028;-83
2022/09/26 05:34:30;;;;;;;2.55;2.13;;;;;;;16.83;66.84;100909.88;5052747;28;20394;-82
2022/09/26 05:36:55;;;;;;;2.25;2.05;;;;;;;16.78;67.07;100901.50;5057222;28;20024;-93
2022/09/26 05:42:05;;;;;;;1.42;1.15;;;;;;;16.59;67.25;100879.25;5038573;28;20094;-87
2022/09/26 05:44:31;;;;;;;1.17;1.05;;;;;;;16.66;67.61;100895.34;5035546;28;20021;-93
2022/09/26 05:46:57;;;;;;;0.75;0.70;;;;;;;16.70;67.37;100888.97;5000452;28;20041;-82
2022/09/26 05:49:24;;;;;;;0.70;0.70;;;;;;;16.58;67.48;100874.97;5034656;28;20036;-82
2022/09/26 05:51:51;;;;;;;0.70;0.70;;;;;;;16.76;66.85;100892.97;5016090;28;20506;-85
2022/09/26 05:54:16;;;;;;;0.85;0.85;;;;;;;16.75;66.90;100870.41;5031829;28;20528;-91
2022/09/26 05:56:42;;;;;;;0.85;0.85;;;;;;;16.86;66.61;100875.69;5037692;28;20043;-90
2022/09/26 05:59:08;;;;;;;1.52;1.42;;;;;;;16.91;66.75;100866.59;5020564;28;20070;-95
2022/09/26 06:01:33;;;;;;;0.70;0.70;;;;;;;16.99;66.05;100879.09;5019322;28;20025;-91
2022/09/26 06:03:59;;;;;;;1.35;1.10;;;;;;;16.99;65.64;100879.09;5023845;28;20485;-85
2022/09/26 06:06:24;;;;;;;1.30;1.20;;;;;;;17.06;65.40;100872.47;5035269;28;20059;-95
2022/09/26 06:08:50;;;;;;;1.38;1.27;;;;;;;17.11;65.78;100877.38;5021259;28;20040;-96
2022/09/26 06:11:17;;;;;;;0.90;0.68;;;;;;;17.30;65.63;100884.72;5041032;28;20040;-93
2022/09/26 06:13:44;;;;;;;0.65;0.65;;;;;;;17.31;64.68;100884.63;5023320;28;20063;-95
2022/09/26 06:16:12;;;;;;;1.23;1.13;;;;;;;17.41;64.79;100888.22;5018761;28;20486;-84
2022/09/26 06:18:39;;;;;;;0.73;0.73;;;;;;;17.45;64.84;100878.38;5035158;28;20039;-94
2022/09/26 06:21:05;;;;;;;1.63;1.45;;;;;;;17.48;64.28;100878.97;5017388;28;20028;-89
2022/09/26 06:23:32;;;;;;;4.53;1.90;;;;;;;17.56;64.46;100860.09;5033005;28;20021;-85
2022/09/26 06:25:58;;;;;;;1.40;1.30;;;;;;;17.53;63.76;100846.41;5029196;28;20068;-88
2022/09/26 06:28:25;;;;;;;0.82;0.77;;;;;;;17.66;64.22;100873.31;5050309;28;20033;-86
2022/09/26 06:30:51;;;;;;;0.95;0.65;;;;;;;17.69;64.12;100862.63;5046187;28;20025;-93
2022/09/26 06:33:16;;;;;;;1.35;1.15;;;;;;;17.69;63.45;100854.78;5013249;28;20029;-96
2022/09/26 06:35:42;;;;;;;2.38;1.52;;;;;;;17.74;62.97;100855.31;5069302;28;20033;-95
2022/09/26 06:38:07;;;;;;;1.17;1.00;;;;;;;17.88;62.73;100851.63;5037236;28;20017;-90
2022/09/26 06:40:33;;;;;;;1.60;1.45;;;;;;;17.73;61.94;100837.94;5033906;28;20478;-84
2022/09/26 06:42:59;;;;;;;0.60;0.60;;;;;;;17.84;61.97;100844.97;5048126;28;20033;-93
2022/09/26 06:45:25;;;;;;;1.25;1.15;;;;;;;17.78;62.22;100838.41;5017258;28;20037;-93
2022/09/26 06:47:53;;;;;;;1.10;0.90;;;;;;;17.89;62.39;100854.13;5019183;28;20032;-94
2022/09/26 06:50:19;;;;;;;1.30;1.08;;;;;;;17.95;61.66;100853.69;5018442;28;20039;-93
2022/09/26 06:52:45;;;;;;;1.63;0.95;;;;;;;17.91;61.12;100846.19;5020743;28;20509;-86
2022/09/26 06:55:10;;;;;;;1.27;0.95;;;;;;;18.01;62.03;100842.75;5032939;28;20033;-83
2022/09/26 06:57:42;;;;;;;1.27;1.00;;;;;;;18.03;60.94;100846.06;5050631;28;20564;-91
2022/09/26 07:00:10;;;;;;;1.40;1.30;;;;;;;18.06;60.93;100855.47;5035379;28;20021;-86
2022/09/26 07:02:35;;;;;;;1.23;0.95;;;;;;;18.03;60.44;100840.84;5016589;28;20086;-83
2022/09/26 07:05:04;;;;;;;1.60;0.90;;;;;;;18.26;60.69;100852.16;5030356;28;20124;-95
2022/09/26 07:07:48;;;;;;;0.85;0.85;;;;;;;18.27;59.89;100864.28;5033988;28;20095;-93
2022/09/26 07:10:20;;;;;;;1.83;1.35;;;;;;;18.27;59.90;100855.59;5051813;28;20118;-91
2022/09/26 07:12:46;;;;;;;1.23;1.10;;;;;;;18.16;59.35;100813.72;5034796;28;20040;-85
2022/09/26 07:15:16;;;;;;;0.85;0.85;;;;;;;18.24;58.83;100842.75;5047985;28;20032;-90
2022/09/26 07:17:42;;;;;;;0.90;0.70;;;;;;;18.11;59.12;100842.88;5030879;28;20079;-84
2022/09/26 07:20:18;;;;;;;1.17;1.08;;;;;;;18.10;60.20;100850.84;5030726;28;20131;-81
2022/09/26 07:22:44;;;;;;;1.20;1.05;;;;;;;18.00;60.34;100842.88;5031845;28;20086;-79
2022/09/26 07:25:10;;;;;;;1.52;0.93;;;;;;;17.95;61.11;100837.97;5047406;28;20033;-80
2022/09/26 07:27:36;;;;;;;0.77;0.77;;;;;;;18.00;61.21;100846.31;5032207;28;20029;-80
2022/09/26 07:30:02;;;;;;;1.15;1.05;;;;;;;17.99;61.03;100849.91;5049051;28;20044;-89
2022/09/26 07:32:29;;;;;;;0.73;0.65;;;;;;;17.99;60.98;100847.28;5049397;28;20048;-88
2022/09/26 07:34:58;;;;;;;1.02;0.93;;;;;;;18.08;61.17;100850.13;5016628;28;20032;-90
2022/09/26 07:37:23;;;;;;;0.80;0.80;;;;;;;18.13;60.82;100858.47;5016097;28;20078;-82
2022/09/26 07:39:49;;;;;;;0.93;0.90;;;;;;;18.14;60.81;100857.50;5048791;28;20029;-80
2022/09/26 07:42:16;;;;;;;1.23;1.10;;;;;;;18.18;60.86;100853.69;5049143;28;20021;-88
2022/09/26 07:44:42;;;;;;;0.90;0.88;;;;;;;18.20;60.23;100851.81;5032470;28;20017;-83
2022/09/26 07:50:10;;;;;;;1.00;0.90;;;;;;;18.06;59.28;100831.91;5050186;28;20098;-86
2022/09/26 07:52:36;;;;;;;3.70;2.65;;;;;;;18.24;59.31;100867.16;5033375;28;20044;-89
2022/09/26 07:55:01;;;;;;;1.58;1.48;;;;;;;18.24;58.96;100868.94;5015841;28;20035;-81
2022/09/26 07:57:28;;;;;;;5.43;4.93;;;;;;;18.36;59.23;100857.50;5032082;28;20037;-80
2022/09/26 07:59:53;;;;;;;3.28;2.60;;;;;;;18.25;59.01;100840.00;5046892;28;20040;-86
2022/09/26 08:02:23;;;;;;;1.95;1.40;;;;;;;18.44;59.06;100864.78;5048731;28;20032;-80
2022/09/26 08:04:49;;;;;;;1.98;1.45;;;;;;;18.35;58.48;100853.22;5036980;28;20056;-90
2022/09/26 08:07:15;;;;;;;0.88;0.77;;;;;;;18.42;58.09;100870.16;5038265;28;20032;-80
2022/09/26 08:09:41;;;;;;;1.38;0.85;;;;;;;18.43;58.51;100861.31;5047870;28;20033;-82
2022/09/26 08:12:06;;;;;;;0.98;0.80;;;;;;;18.42;58.44;100849.19;5048527;28;20044;-81
2022/09/26 08:14:32;;;;;;;1.67;1.15;;;;;;;18.58;58.48;100873.25;5048186;28;20025;-84
2022/09/26 08:16:57;;;;;;;2.67;1.92;;;;;;;18.70;58.32;100875.88;5031554;28;20048;-89
2022/09/26 08:19:23;;;;;;;1.77;1.25;;;;;;;18.73;57.38;100847.63;5042703;28;20060;-86
2022/09/26 08:21:49;;;;;;;2.33;1.85;;;;;;;18.92;57.29;100860.94;5031773;28;20037;-83
2022/09/26 08:24:14;;;;;;;1.10;1.00;;;;;;;18.99;57.02;100848.19;5031803;28;20425;-91
2022/09/26 08:26:39;;;;;;;1.52;1.42;;;;;;;19.09;56.39;100838.59;5032578;28;20025;-86
2022/09/26 08:29:10;;;;;;;1.13;0.93;;;;;;;19.25;54.35;100829.47;5031856;28;20130;-91
2022/09/26 08:31:37;;;;;;;1.33;1.23;;;;;;;19.30;53.95;100827.31;5024636;28;20040;-91
2022/09/26 08:34:03;;;;;;;1.15;1.10;;;;;;;19.28;54.05;100822.19;5033082;28;20070;-86
2022/09/26 08:36:29;;;;;;;2.03;0.95;;;;;;;19.41;52.42;100825.47;5048231;28;20029;-81
2022/09/26 08:38:55;;;;;;;2.63;1.33;;;;;;;19.40;52.60;100807.25;5048870;28;20064;-86
2022/09/26 08:41:31;;;;;;;1.77;1.67;;;;;;;19.44;52.01;100804.22;5030573;28;20531;-87
2022/09/26 08:44:34;;;;;;;1.90;1.77;;;;;;;19.51;52.41;100819.47;5039422;28;20016;-84
2022/09/26 08:47:55;;;;;;;2.08;1.88;;;;;;;19.39;52.30;100818.69;5036210;28;20094;-82
2022/09/26 08:50:27;;;;;;;1.60;1.50;;;;;;;19.27;52.37;100799.56;5007877;28;20044;-81
2022/09/26 08:52:58;;;;;;;1.70;1.55;;;;;;;19.34;52.50;100823.47;5019123;28;20044;-79
2022/09/26 08:55:26;;;;;;;0.95;0.88;;;;;;;19.43;52.33;100817.47;5034174;28;20029;-83
2022/09/26 08:57:55;;;;;;;2.63;2.35;;;;;;;19.57;51.88;100817.19;5019564;28;20037;-88
2022/09/26 09:00:23;;;;;;;1.38;1.27;;;;;;;19.68;51.48;100826.78;5034943;28;20025;-90
2022/09/26 09:03:03;;;;;;;2.53;1.58;;;;;;;19.69;50.49;100828.47;5031964;28;20033;-92
2022/09/26 09:05:33;;;;;;;0.88;0.88;;;;;;;19.49;51.05;100791.56;5035719;28;20079;-84
2022/09/26 09:07:59;;;;;;;1.05;0.93;;;;;;;19.83;51.78;100814.16;5018404;28;20039;-88
2022/09/26 09:10:33;;;;;;;2.03;1.73;;;;;;;19.87;50.75;100799.81;5035064;28;20028;-91
2022/09/26 09:13:32;;;;;;;0.95;0.95;;;;;;;19.97;49.46;100792.81;5052557;28;20033;-87
2022/09/26 09:16:11;;;;;;;0.93;0.57;;;;;;;19.96;50.06;100791.13;5023377;28;20037;-92
2022/09/26 09:19:08;;;;;;;1.80;1.65;;;;;;;19.99;50.24;100788.25;5051265;28;21441;-82
2022/09/26 09:21:50;;;;;;;0.77;0.70;;;;;;;20.05;49.19;100787.72;5051237;28;20458;-82
2022/09/26 09:24:41;;;;;;;1.17;1.08;;;;;;;20.20;49.71;100798.72;5034885;28;20044;-88
2022/09/26 09:27:38;;;;;;;0.75;0.70;;;;;;;20.36;48.56;100800.84;5049102;28;20033;-88
2022/09/26 09:30:03;;;;;;;1.08;0.98;;;;;;;20.24;48.97;100761.53;5051539;28;20096;-85
2022/09/26 09:32:33;;;;;;;0.57;0.57;;;;;;;20.42;49.39;100785.38;5048806;28;20144;-85
2022/09/26 09:34:58;;;;;;;0.77;0.77;;;;;;;20.57;48.19;100783.22;5048807;28;20031;-81
2022/09/26 09:37:27;;;;;;;0.85;0.80;;;;;;;20.66;48.04;100777.16;5032134;28;20025;-80
2022/09/26 09:39:52;;;;;;;1.27;1.15;;;;;;;20.53;48.95;100740.59;5016521;28;20102;-87
2022/09/26 09:42:38;;;;;;;0.63;0.63;;;;;;;20.80;48.11;100778.53;5019555;28;20490;-91
2022/09/26 09:45:05;;;;;;;1.25;1.05;;;;;;;20.88;48.43;100787.41;5033351;28;20064;-84
2022/09/26 09:47:30;;;;;;;0.77;0.60;;;;;;;20.94;48.38;100777.28;5031548;28;20069;-83
2022/09/26 09:49:56;;;;;;;0.95;0.68;;;;;;;21.07;47.29;100788.38;5016158;28;20462;-82
2022/09/26 09:52:43;;;;;;;1.13;1.02;;;;;;;21.12;47.71;100784.34;5035509;28;20075;-93
2022/09/26 09:55:36;;;;;;;1.17;1.08;;;;;;;21.13;46.90;100795.72;5051174;28;20029;-81
2022/09/26 09:58:26;;;;;;;1.10;1.00;;;;;;;21.20;46.73;100781.03;5051618;28;20519;-83
2022/09/26 10:01:15;;;;;;;1.75;1.17;;;;;;;21.19;46.11;100789.91;5051554;28;20204;-85
2022/09/26 10:04:03;;;;;;;1.10;1.02;;;;;;;21.20;46.08;100773.16;5052550;28;20123;-84
2022/09/26 10:06:31;;;;;;;0.70;0.70;;;;;;;21.22;46.52;100778.25;5033574;28;20426;-83
2022/09/26 10:08:56;;;;;;;1.17;0.95;;;;;;;21.23;46.68;100775.50;5017115;28;20162;-82
2022/09/26 10:11:29;;;;;;;0.70;0.70;;;;;;;21.33;46.86;100759.72;5017428;28;20032;-85
2022/09/26 10:14:00;;;;;;;1.65;1.38;;;;;;;21.36;46.23;100752.41;5050798;28;20157;-88
2022/09/26 10:16:26;;;;;;;0.77;0.77;;;;;;;21.42;45.98;100764.97;5034355;28;20025;-89
2022/09/26 10:18:52;;;;;;;1.25;1.02;;;;;;;21.42;45.99;100764.97;5018268;28;20032;-85
2022/09/26 10:21:17;;;;;;;1.10;1.00;;;;;;;21.27;45.92;100745.34;5050776;28;20025;-86
2022/09/26 10:23:48;;;;;;;1.15;1.05;;;;;;;21.26;46.52;100740.19;5033465;28;20486;-90
2022/09/26 10:26:13;;;;;;;2.83;1.02;;;;;;;21.31;46.97;100756.41;5051822;28;20056;-80
2022/09/26 10:28:54;;;;;;;1.48;1.30;;;;;;;21.17;47.19;100736.59;5033190;28;20067;-81
2022/09/26 10:31:22;;;;;;;1.85;1.65;;;;;;;21.33;46.65;100749.19;5034104;28;20116;-82
2022/09/26 10:33:52;;;;;;;2.50;1.73;;;;;;;21.33;47.10;100744.75;5050161;28;20040;-81
2022/09/26 10:36:20;;;;;;;1.30;1.02;;;;;;;21.38;46.33;100745.19;5017302;28;20029;-81
2022/09/26 10:41:39;;;;;;;1.63;1.02;;;;;;;21.35;46.42;100732.31;5036409;28;20575;-82
2022/09/26 10:44:06;;;;;;;0.80;0.77;;;;;;;21.29;45.62;100735.50;5033676;28;20025;-89
2022/09/26 10:46:32;;;;;;;1.15;1.00;;;;;;;21.42;45.85;100730.75;5034521;28;20095;-84
2022/09/26 10:49:00;;;;;;;1.10;1.00;;;;;;;21.29;46.07;100716.25;5032749;28;20474;-86
2022/09/26 10:51:41;;;;;;;1.60;1.50;;;;;;;21.51;46.36;100730.88;5015627;28;20136;-84
2022/09/26 10:54:18;;;;;;;1.65;1.55;;;;;;;21.50;46.29;100724.78;5026664;28;20057;-94
2022/09/26 10:56:46;;;;;;;2.10;1.67;;;;;;;21.45;46.28;100708.59;5013442;28;20117;-84
2022/09/26 10:59:16;;;;;;;1.17;1.08;;;;;;;21.51;46.42;100720.34;5024445;28;20702;-84
2022/09/26 11:01:44;;;;;;;1.20;1.00;;;;;;;21.52;44.50;100722.84;5032160;28;20402;-84
2022/09/26 11:05:55;;;;;;;1.40;1.30;;;;;;;21.47;44.33;100714.56;5031153;28;20021;-84
2022/09/26 11:07:05;;;;;;;1.77;1.55;;;;;;;21.40;44.22;100702.94;5033890;28;20040;-86
2022/09/26 11:09:30;;;;;;;1.88;1.52;;;;;;;21.50;44.47;100709.00;5032042;28;20053;-89
2022/09/26 11:11:56;;;;;;;0.90;0.75;;;;;;;21.55;44.52;100717.31;5015956;28;20083;-81
2022/09/26 11:14:28;;;;;;;1.23;1.13;;;;;;;21.51;45.40;100708.00;5032008;28;20061;-87
2022/09/26 11:16:54;;;;;;;0.88;0.85;;;;;;;21.52;45.33;100701.78;5032322;28;20025;-85
2022/09/26 11:19:25;;;;;;;1.08;0.98;;;;;;;21.57;45.32;100709.25;5049231;28;20095;-81
2022/09/26 11:22:11;;;;;;;1.10;1.00;;;;;;;21.74;45.21;100711.97;5050353;28;20115;-86
2022/09/26 11:25:07;;;;;;;1.42;1.33;;;;;;;21.77;45.16;100713.47;5041578;28;20166;-80
2022/09/26 11:27:46;;;;;;;0.57;0.55;;;;;;;21.76;43.83;100699.47;5039709;28;20033;-83
2022/09/26 11:30:13;;;;;;;1.10;1.00;;;;;;;21.84;43.46;100697.94;5048737;28;20024;-83
2022/09/26 11:32:43;;;;;;;1.45;1.35;;;;;;;21.83;43.41;100676.03;5032050;28;20108;-88
2022/09/26 11:35:13;;;;;;;1.27;0.70;;;;;;;22.12;42.69;100690.84;5029629;28;21296;-80
2022/09/26 11:38:04;;;;;;;1.70;0.98;;;;;;;22.10;42.13;100679.63;5047385;28;20071;-85
2022/09/26 11:40:51;;;;;;;1.50;1.40;;;;;;;22.28;42.26;100688.41;5048375;28;20029;-82
2022/09/26 11:43:28;;;;;;;1.55;1.17;;;;;;;22.39;43.00;100690.81;5047386;28;20029;-82
2022/09/26 11:46:15;;;;;;;2.20;2.00;;;;;;;22.44;42.22;100693.84;5049732;28;20115;-85
2022/09/26 11:48:49;;;;;;;6.15;5.45;;;;;;;22.43;42.21;100686.91;5049952;28;20166;-83
2022/09/26 11:51:46;;;;;;;1.85;1.13;;;;;;;22.47;41.33;100687.44;5031221;28;20029;-82
2022/09/26 11:54:24;;;;;;;1.33;0.93;;;;;;;22.47;41.44;100687.44;5050045;28;20025;-84
2022/09/26 11:57:47;;;;;;;1.38;1.25;;;;;;;22.53;41.84;100682.41;5042979;28;20455;-80
2022/09/26 12:00:23;;;;;;;1.73;1.13;;;;;;;22.63;42.01;100676.22;4991143;28;20034;-81
2022/09/26 12:03:45;;;;;;;1.25;1.05;;;;;;;22.61;41.45;100660.53;5013491;28;20025;-79
2022/09/26 12:06:32;;;;;;;2.22;0.77;;;;;;;22.69;41.66;100667.69;5007455;28;20069;-82
2022/09/26 12:09:32;;;;;;;0.90;0.70;;;;;;;22.69;42.22;100670.31;4991788;28;20042;-80
2022/09/26 12:12:04;;;;;;;1.05;0.82;;;;;;;22.63;41.71;100681.50;5041306;28;20434;-81
2022/09/26 12:14:54;;;;;;;0.60;0.60;;;;;;;22.56;41.80;100690.00;5047879;28;20041;-80
2022/09/26 12:17:45;;;;;;;1.48;1.38;;;;;;;22.58;42.05;100692.47;5048005;28;20025;-81
2022/09/26 12:20:38;;;;;;;1.25;1.15;;;;;;;22.29;41.82;100656.63;5049270;28;20037;-81
2022/09/26 12:23:25;;;;;;;1.33;1.15;;;;;;;22.54;41.98;100699.88;5049563;28;20025;-93
2022/09/26 12:26:12;;;;;;;0.85;0.82;;;;;;;22.58;42.51;100711.75;5046516;28;20045;-90
2022/09/26 12:28:49;;;;;;;1.80;1.30;;;;;;;22.53;42.78;100710.56;5046946;28;20036;-82
2022/09/26 12:31:53;;;;;;;1.02;0.90;;;;;;;22.45;43.74;100695.50;5043867;28;20029;-83
2022/09/26 12:34:26;;;;;;;0.77;0.77;;;;;;;22.46;44.97;100709.50;5009384;28;20415;-87
2022/09/26 12:37:14;;;;;;;1.75;1.15;;;;;;;22.36;44.62;100706.94;4974461;28;20033;-87
2022/09/26 12:40:01;;;;;;;0.65;0.65;;;;;;;22.14;45.41;100668.66;5031909;28;20037;-89
2022/09/26 12:42:38;;;;;;;1.17;1.08;;;;;;;22.18;44.93;100693.72;5049843;28;20057;-82
2022/09/26 12:45:31;;;;;;;0.90;0.73;;;;;;;22.14;45.92;100678.38;5052193;28;20033;-82
2022/09/26 12:48:15;;;;;;;;;;;;;;;22.19;45.67;100686.66;5052871;28;20060;-82
2022/09/26 12:51:05;;;;;;;0.55;0.50;;;;;;;22.01;47.75;100670.78;5049579;28;19920;-83
2022/09/26 12:53:52;;;;;;;1.08;0.90;;;;;;;21.98;49.07;100677.19;5050531;28;20085;-83
2022/09/26 12:56:25;;;;;;;0.75;0.70;;;;;;;21.88;49.24;100679.03;5051288;28;20025;-84
2022/09/26 12:59:15;;;;;;;1.75;1.40;;;;;;;21.87;49.39;100671.28;5049556;28;20021;-82
2022/09/26 13:02:05;;;;;;;1.73;1.50;;;;;;;21.94;49.04;100662.66;5044256;28;20036;-81
2022/09/26 13:04:55;;;;;;;1.60;1.50;;;;;;;21.88;48.43;100644.81;5052830;28;20059;-80
2022/09/26 13:07:52;;;;;;;1.45;1.35;;;;;;;21.91;48.45;100646.31;5052639;28;20043;-80
2022/09/26 13:10:42;;;;;;;1.25;1.15;;;;;;;21.72;47.56;100624.38;5051062;28;20131;-81
2022/09/26 13:13:08;;;;;;;1.95;1.75;;;;;;;21.83;48.19;100652.34;5049955;28;20702;-85
2022/09/26 13:15:42;;;;;;;4.47;1.92;;;;;;;21.79;48.58;100637.78;5053264;28;20083;-82
2022/09/26 13:18:12;;;;;;;1.60;1.33;;;;;;;21.65;47.83;100610.16;5034940;28;20025;-81
2022/09/26 13:20:50;;;;;;;2.30;1.63;;;;;;;21.74;47.60;100614.53;5035190;28;20032;-82
2022/09/26 13:23:20;;;;;;;1.65;1.55;;;;;;;21.71;47.54;100595.56;5035737;28;20476;-83
2022/09/26 13:25:51;;;;;;;1.42;1.25;;;;;;;21.92;47.95;100627.72;5034846;28;20029;-82
2022/09/26 13:28:20;;;;;;;2.25;2.05;;;;;;;21.71;48.26;100585.84;5049841;28;20464;-82
2022/09/26 13:31:04;;;;;;;1.88;1.67;;;;;;;21.80;48.91;100588.59;5030757;28;20037;-81
2022/09/26 13:33:34;;;;;;;2.28;1.17;;;;;;;21.95;48.34;100605.53;5031498;28;20034;-83
2022/09/26 13:36:00;;;;;;;1.10;1.00;;;;;;;21.98;48.93;100606.06;5032173;28;20410;-84
2022/09/26 13:38:40;;;;;;;3.50;1.67;;;;;;;22.10;47.85;100613.78;5023738;28;20025;-83
2022/09/26 13:41:21;;;;;;;0.80;0.80;;;;;;;21.96;47.66;100594.03;5045503;28;20111;-82
2022/09/26 13:44:00;;;;;;;1.80;1.38;;;;;;;21.99;48.12;100591.91;5048467;28;20025;-82
2022/09/26 13:46:58;;;;;;;1.23;1.05;;;;;;;22.11;47.90;100597.00;5048353;28;20037;-81
2022/09/26 13:49:35;;;;;;;1.40;1.10;;;;;;;22.05;48.22;100577.31;5046649;28;20429;-85
2022/09/26 13:52:34;;;;;;;1.77;1.27;;;;;;;21.93;48.44;100563.56;5049268;28;20402;-82
2022/09/26 13:55:01;;;;;;;0.75;0.75;;;;;;;22.02;48.61;100588.13;5033257;28;20037;-87
2022/09/26 13:57:33;;;;;;;2.35;1.38;;;;;;;21.99;48.59;100597.19;5033583;28;20021;-82
2022/09/26 14:00:00;;;;;;;1.70;1.17;;;;;;;21.97;48.60;100601.78;5050528;28;20421;-85
2022/09/26 14:02:29;;;;;;;1.33;0.85;;;;;;;21.92;48.52;100592.66;5017365;28;20029;-85
2022/09/26 14:05:00;;;;;;;1.20;1.08;;;;;;;21.82;49.17;100592.72;5030692;28;20082;-82
2022/09/26 14:10:36;;;;;;;0.93;0.82;;;;;;;21.83;49.42;100594.41;5043488;28;20047;-84
2022/09/26 14:13:08;;;;;;;1.35;0.85;;;;;;;21.74;48.98;100590.00;5031194;28;20025;-81
2022/09/26 14:15:49;;;;;;;1.25;1.15;;;;;;;21.78;48.88;100601.91;5030668;28;20084;-84
2022/09/26 14:18:52;;;;;;;0.73;0.60;;;;;;;21.90;49.03;100605.16;5030839;28;20090;-83
2022/09/26 14:21:55;;;;;;;0.77;0.55;;;;;;;21.88;50.37;100607.09;5031862;28;20032;-87
